Terminal Aerodrome Forecast
Issued by NWS

Home | Current Version | Previous Version | Text Only | Print | Product List | Glossary On
Versions: 1 2 3 4 5 6 7 8 9 10 11 12 13 14 15 16 17 18 19 20 21
738
FTUS46 KSGX 051141 CCA
TAFSNA
TAF COR
KSNA 051141Z 0512/0612 VRB05KT P6SM SCT025 OVC040
     FM051900 21011G18KT P6SM FEW025 BKN035
     FM060300 22009KT P6SM VCSH BKN025 OVC035
     FM060600 VRB05KT P6SM -SHRA BKN020 OVC040=

USA.gov is the U.S. government's official web portal to all federal, state and local government web resources and services.